createdAt,value
2017-10-23T00:00:02.954Z,1013.92
2017-10-23T00:05:03.637Z,1013.94
2017-10-23T00:10:03.119Z,1013.95
2017-10-23T00:15:03.501Z,1013.94
2017-10-23T00:20:02.980Z,1013.93
2017-10-23T00:25:03.478Z,1013.99
2017-10-23T00:30:02.879Z,1013.99
2017-10-23T00:35:03.313Z,1013.99
2017-10-23T00:40:02.871Z,1014.02
2017-10-23T00:45:03.435Z,1014.04
2017-10-23T00:50:02.950Z,1014
2017-10-23T00:55:03.356Z,1013.95
2017-10-23T01:00:02.752Z,1014.01
2017-10-23T01:05:03.169Z,1014.01
2017-10-23T01:10:02.660Z,1013.98
2017-10-23T01:15:03.220Z,1014.1
2017-10-23T01:20:02.853Z,1014.15
2017-10-23T01:25:03.407Z,1014.06
2017-10-23T01:30:02.975Z,1014.09
2017-10-23T01:35:03.615Z,1014.14
2017-10-23T01:40:03.281Z,1014.16
2017-10-23T01:45:02.777Z,1014.16
2017-10-23T01:50:03.447Z,1014.17
2017-10-23T01:55:02.984Z,1014.23
2017-10-23T02:00:03.440Z,1014.27
2017-10-23T02:05:02.867Z,1014.53
2017-10-23T02:10:03.638Z,1014.35
2017-10-23T02:15:03.146Z,1014.3
2017-10-23T02:20:03.623Z,1014.31
2017-10-23T02:25:03.081Z,1014.25
2017-10-23T02:30:02.730Z,1014.34
2017-10-23T02:35:03.120Z,1014.31
2017-10-23T02:40:02.682Z,1014.17
2017-10-23T02:45:03.134Z,1014.24
2017-10-23T02:50:02.907Z,1014.33
2017-10-23T02:55:03.418Z,1014.27
2017-10-23T03:00:02.898Z,1014.32
2017-10-23T03:05:03.372Z,1014.32
2017-10-23T03:10:02.875Z,1014.24
2017-10-23T03:15:03.313Z,1014.41
2017-10-23T03:20:02.896Z,1014.42
2017-10-23T03:25:03.342Z,1014.46
2017-10-23T03:30:02.838Z,1014.47
2017-10-23T03:35:03.458Z,1014.54
2017-10-23T03:40:02.980Z,1014.57
2017-10-23T03:45:03.511Z,1014.58
2017-10-23T03:50:02.864Z,1014.62
2017-10-23T03:55:03.448Z,1014.66
2017-10-23T04:00:02.925Z,1014.63
2017-10-23T04:05:03.335Z,1014.76
2017-10-23T04:10:02.927Z,1014.78
2017-10-23T04:15:03.456Z,1014.85
2017-10-23T04:20:02.917Z,1014.87
2017-10-23T04:25:03.489Z,1014.79
2017-10-23T04:30:03.021Z,1014.82
2017-10-23T04:35:03.474Z,1014.91
2017-10-23T04:40:03.126Z,1014.97
2017-10-23T04:45:03.476Z,1014.93
2017-10-23T04:50:02.918Z,1014.89
2017-10-23T04:55:03.425Z,1014.88
2017-10-23T05:00:03.030Z,1014.89
2017-10-23T05:05:03.605Z,1014.85
2017-10-23T05:10:03.137Z,1014.8
2017-10-23T05:15:03.628Z,1014.85
2017-10-23T05:20:03.104Z,1014.82
2017-10-23T05:25:03.584Z,1014.91
2017-10-23T05:30:03.123Z,1014.84
2017-10-23T05:35:02.690Z,1014.92
2017-10-23T05:40:03.196Z,1014.91
2017-10-23T05:45:02.737Z,1015.06
2017-10-23T05:50:03.365Z,1015.13
2017-10-23T05:55:02.884Z,1015.3
2017-10-23T06:00:03.539Z,1015.27
2017-10-23T06:05:03.037Z,1015.34
2017-10-23T06:10:02.708Z,1015.4
2017-10-23T06:15:03.309Z,1015.4
2017-10-23T06:20:02.950Z,1015.56
2017-10-23T06:25:03.547Z,1015.58
2017-10-23T06:30:03.056Z,1015.55
2017-10-23T06:35:02.687Z,1015.56
2017-10-23T06:40:03.271Z,1015.61
2017-10-23T06:45:02.863Z,1015.6
2017-10-23T06:50:03.406Z,1015.61
2017-10-23T06:55:02.817Z,1015.66
2017-10-23T07:00:03.363Z,1015.77
2017-10-23T07:05:02.965Z,1015.75
2017-10-23T07:10:03.590Z,1015.73
2017-10-23T07:15:02.998Z,1015.7
2017-10-23T07:20:03.600Z,1015.73
2017-10-23T07:25:03.184Z,1015.63
2017-10-23T07:30:02.939Z,1015.74
2017-10-23T07:35:03.502Z,1015.74
2017-10-23T07:40:03.115Z,1015.72
2017-10-23T07:45:03.630Z,1015.85
2017-10-23T07:50:03.026Z,1015.85
2017-10-23T07:55:03.529Z,1015.84
2017-10-23T08:00:02.996Z,1015.85
2017-10-23T08:05:03.436Z,1015.83
2017-10-23T08:10:02.996Z,1015.92
2017-10-23T08:15:03.481Z,1016
2017-10-23T08:20:03.114Z,1015.99
2017-10-23T08:25:03.608Z,1016.17
2017-10-23T08:30:03.084Z,1016.25
2017-10-23T08:35:02.672Z,1016.28
2017-10-23T08:40:03.216Z,1016.28
2017-10-23T08:45:03.639Z,1016.44
2017-10-23T08:50:03.253Z,1016.37
2017-10-23T08:55:02.689Z,1016.41
2017-10-23T09:00:03.290Z,1016.45
2017-10-23T09:05:02.761Z,1016.45
2017-10-23T09:10:03.217Z,1016.43
2017-10-23T09:15:02.671Z,1016.45
2017-10-23T09:20:03.188Z,1016.33
2017-10-23T09:25:02.768Z,1016.41
2017-10-23T09:30:03.365Z,1016.31
2017-10-23T09:35:02.835Z,1016.35
2017-10-23T09:40:03.469Z,1016.39
2017-10-23T09:45:03.035Z,1016.45
2017-10-23T09:50:03.628Z,1016.4
2017-10-23T09:55:03.229Z,1016.53
2017-10-23T10:00:02.695Z,1016.7
2017-10-23T10:05:03.239Z,1016.75
2017-10-23T10:10:02.908Z,1016.77
2017-10-23T10:15:03.489Z,1016.81
2017-10-23T10:20:02.886Z,1016.84
2017-10-23T10:25:03.437Z,1016.93
2017-10-23T10:30:02.977Z,1016.76
2017-10-23T10:35:03.403Z,1016.81
2017-10-23T10:40:03.029Z,1016.88
2017-10-23T10:45:03.428Z,1016.84
2017-10-23T10:50:03.056Z,1016.84
2017-10-23T10:55:03.663Z,1016.89
2017-10-23T11:00:03.126Z,1016.93
2017-10-23T11:05:02.699Z,1016.96
2017-10-23T11:10:03.268Z,1016.81
2017-10-23T11:15:02.844Z,1016.83
2017-10-23T11:20:03.312Z,1016.9
2017-10-23T11:25:02.777Z,1016.82
2017-10-23T11:30:03.178Z,1016.77
2017-10-23T11:35:02.806Z,1016.84
2017-10-23T11:40:03.344Z,1016.85
2017-10-23T11:45:02.891Z,1016.92
2017-10-23T11:50:03.510Z,1016.83
2017-10-23T11:55:02.941Z,1016.91
2017-10-23T12:00:03.550Z,1017.04
2017-10-23T12:05:03.312Z,1017.08
2017-10-23T12:10:02.920Z,1016.89
2017-10-23T12:15:03.401Z,1017.03
2017-10-23T12:20:02.924Z,1017.03
2017-10-23T12:25:03.477Z,1017.18
2017-10-23T12:30:02.979Z,1017.07
2017-10-23T12:35:03.377Z,1017.14
2017-10-23T12:40:03.264Z,1017.23
2017-10-23T12:45:02.844Z,1017.24
2017-10-23T12:50:03.352Z,1017.12
2017-10-23T12:55:02.883Z,1017.22
2017-10-23T13:00:03.324Z,1017.37
2017-10-23T13:05:02.796Z,1017.31
2017-10-23T13:10:03.389Z,1017.39
2017-10-23T13:15:02.962Z,1017.42
2017-10-23T13:20:03.371Z,1017.39
2017-10-23T13:25:02.902Z,1017.41
2017-10-23T13:30:03.335Z,1017.42
2017-10-23T13:35:03.624Z,1017.58
2017-10-23T13:40:03.165Z,1017.6
2017-10-23T13:45:03.553Z,1017.56
2017-10-23T13:50:03.170Z,1017.56
2017-10-23T13:55:03.589Z,1017.63
2017-10-23T14:00:03.175Z,1017.64
2017-10-23T14:05:02.644Z,1017.66
2017-10-23T14:10:03.229Z,1017.73
2017-10-23T14:15:02.808Z,1017.84
2017-10-23T14:20:03.331Z,1017.83
2017-10-23T14:25:02.834Z,1017.87
2017-10-23T14:30:03.422Z,1017.93
2017-10-23T14:35:02.994Z,1017.97
2017-10-23T14:40:03.666Z,1018.05
2017-10-23T14:45:03.128Z,1018.05
2017-10-23T14:50:03.549Z,1018.08
2017-10-23T15:05:03.432Z,1018.11
2017-10-23T15:10:03.018Z,1018.25
2017-10-23T15:15:03.628Z,1018.11
2017-10-23T15:20:03.036Z,1018.11
2017-10-23T15:25:03.534Z,1018.19
2017-10-23T15:30:02.924Z,1018.21
2017-10-23T15:35:03.547Z,1018.19
2017-10-23T15:40:02.999Z,1018.35
2017-10-23T15:45:03.523Z,1018.4
2017-10-23T15:50:03.095Z,1018.39
2017-10-23T15:55:03.618Z,1018.41
2017-10-23T16:00:03.141Z,1018.43
2017-10-23T16:05:02.695Z,1018.47
2017-10-23T16:10:03.359Z,1018.51
2017-10-23T16:15:02.775Z,1018.54
2017-10-23T16:20:03.257Z,1018.56
2017-10-23T16:25:02.657Z,1018.65
2017-10-23T16:30:03.234Z,1018.67
2017-10-23T16:35:02.659Z,1018.7
2017-10-23T16:40:03.283Z,1018.72
2017-10-23T16:45:02.809Z,1018.82
2017-10-23T16:50:03.353Z,1018.88
2017-10-23T16:55:02.747Z,1018.98
2017-10-23T17:00:03.180Z,1018.96
2017-10-23T17:05:02.787Z,1019.05
2017-10-23T17:10:03.362Z,1019.15
2017-10-23T17:15:02.811Z,1019.2
2017-10-23T17:20:03.408Z,1019.26
2017-10-23T17:25:02.882Z,1019.41
2017-10-23T17:30:03.514Z,1019.5
2017-10-23T17:35:03.085Z,1019.56
2017-10-23T17:40:03.556Z,1019.56
2017-10-23T17:45:03.207Z,1019.63
2017-10-23T17:50:02.746Z,1019.57
2017-10-23T17:55:03.139Z,1019.64
2017-10-23T18:00:03.591Z,1019.63
2017-10-23T18:05:03.062Z,1019.58
2017-10-23T18:10:03.597Z,1019.67
2017-10-23T18:15:03.100Z,1019.75
2017-10-23T18:20:02.729Z,1019.8
2017-10-23T18:25:03.110Z,1019.81
2017-10-23T18:30:03.638Z,1019.78
2017-10-23T18:35:03.251Z,1019.77
2017-10-23T18:40:02.798Z,1019.78
2017-10-23T18:45:03.201Z,1019.76
2017-10-23T18:50:02.763Z,1019.75
2017-10-23T18:55:03.173Z,1019.82
2017-10-23T19:00:03.575Z,1019.83
2017-10-23T19:05:03.161Z,1019.77
2017-10-23T19:10:03.610Z,1019.78
2017-10-23T19:15:03.035Z,1019.79
2017-10-23T19:20:03.552Z,1019.83
2017-10-23T19:25:03.029Z,1019.8
2017-10-23T19:30:03.605Z,1019.85
2017-10-23T19:35:03.007Z,1019.86
2017-10-23T19:40:02.650Z,1019.93
2017-10-23T19:45:03.137Z,1019.98
2017-10-23T19:50:02.758Z,1019.93
2017-10-23T19:55:03.366Z,1019.99
2017-10-23T20:00:02.808Z,1019.95
2017-10-23T20:05:03.419Z,1020
2017-10-23T20:10:03.077Z,1020.08
2017-10-23T20:15:03.601Z,1020.06
2017-10-23T20:20:03.029Z,1020.14
2017-10-23T20:25:03.614Z,1020.15
2017-10-23T20:30:03.232Z,1020.2
2017-10-23T20:35:02.700Z,1020.13
2017-10-23T20:40:03.297Z,1020.08
2017-10-23T20:45:02.900Z,1020.14
2017-10-23T20:50:03.443Z,1020.11
2017-10-23T20:55:02.931Z,1020.19
2017-10-23T21:00:03.348Z,1020.21
2017-10-23T21:05:02.882Z,1020.3
2017-10-23T21:10:03.518Z,1020.28
2017-10-23T21:15:02.946Z,1020.3
2017-10-23T21:20:03.364Z,1020.26
2017-10-23T21:25:02.737Z,1020.19
2017-10-23T21:30:03.424Z,1020.19
2017-10-23T21:35:02.854Z,1020.2
2017-10-23T21:40:03.495Z,1020.21
2017-10-23T21:45:03.043Z,1020.23
2017-10-23T21:50:03.568Z,1020.34
2017-10-23T21:55:02.964Z,1020.25
2017-10-23T22:00:03.563Z,1020.2
2017-10-23T22:05:02.942Z,1020.22
2017-10-23T22:10:03.377Z,1020.2
2017-10-23T22:15:02.904Z,1020.29
2017-10-23T22:20:03.496Z,1020.23
2017-10-23T22:25:02.873Z,1020.25
2017-10-23T22:30:03.425Z,1020.22
2017-10-23T22:35:02.984Z,1020.3
2017-10-23T22:40:02.651Z,1020.2
2017-10-23T22:45:03.153Z,1020.17
2017-10-23T22:50:02.628Z,1020.16
2017-10-23T22:55:03.133Z,1020.15
2017-10-23T23:00:04.347Z,1020.09
2017-10-23T23:05:03.094Z,1020.01
2017-10-23T23:10:02.682Z,1020.09
2017-10-23T23:15:03.237Z,1020.15
2017-10-23T23:20:03.607Z,1020.13
2017-10-23T23:25:03.014Z,1020.09
2017-10-23T23:30:02.704Z,1020.18
2017-10-23T23:35:03.256Z,1020.08
2017-10-23T23:40:02.739Z,1020.12
2017-10-23T23:45:03.410Z,1020.07
2017-10-23T23:50:02.924Z,1020.12
2017-10-23T23:55:03.571Z,1020.04
